sensor_id;sensor_type;location;lat;lon;timestamp;pressure;altitude;pressure_sealevel;temperature;humidity
27712;BME280;2377;51.734;8.950;2023-01-31T00:01:36;98283.09;;;3.84;100.00
27712;BME280;2377;51.734;8.950;2023-01-31T00:04:05;98287.66;;;3.80;100.00
27712;BME280;2377;51.734;8.950;2023-01-31T00:06:36;98286.41;;;3.84;100.00
27712;BME280;2377;51.734;8.950;2023-01-31T00:09:06;98299.97;;;3.83;100.00
27712;BME280;2377;51.734;8.950;2023-01-31T00:11:34;98290.19;;;3.80;100.00
27712;BME280;2377;51.734;8.950;2023-01-31T00:14:04;98292.41;;;3.83;100.00
27712;BME280;2377;51.734;8.950;2023-01-31T00:16:32;98303.63;;;3.80;100.00
27712;BME280;2377;51.734;8.950;2023-01-31T00:18:59;98289.25;;;3.81;100.00
27712;BME280;2377;51.734;8.950;2023-01-31T00:21:29;98292.09;;;3.78;100.00
27712;BME280;2377;51.734;8.950;2023-01-31T00:23:58;98307.56;;;3.75;100.00
27712;BME280;2377;51.734;8.950;2023-01-31T00:26:27;98285.91;;;3.80;100.00
27712;BME280;2377;51.734;8.950;2023-01-31T00:28:57;98288.63;;;3.79;100.00
27712;BME280;2377;51.734;8.950;2023-01-31T00:31:29;98290.19;;;3.80;100.00
27712;BME280;2377;51.734;8.950;2023-01-31T00:33:57;98296.53;;;3.84;100.00
27712;BME280;2377;51.734;8.950;2023-01-31T00:36:28;98301.91;;;3.81;100.00
27712;BME280;2377;51.734;8.950;2023-01-31T00:38:58;98296.22;;;3.79;100.00
27712;BME280;2377;51.734;8.950;2023-01-31T00:41:28;98304.56;;;3.79;100.00
27712;BME280;2377;51.734;8.950;2023-01-31T00:43:56;98301.56;;;3.76;100.00
27712;BME280;2377;51.734;8.950;2023-01-31T00:46:23;98297.78;;;3.80;100.00
27712;BME280;2377;51.734;8.950;2023-01-31T00:48:52;98297.44;;;3.83;100.00
27712;BME280;2377;51.734;8.950;2023-01-31T00:51:21;98292.56;;;3.81;100.00
27712;BME280;2377;51.734;8.950;2023-01-31T00:53:49;98285.63;;;3.84;100.00
27712;BME280;2377;51.734;8.950;2023-01-31T00:56:21;98294.94;;;3.83;100.00
27712;BME280;2377;51.734;8.950;2023-01-31T00:58:49;98301.59;;;3.84;100.00
27712;BME280;2377;51.734;8.950;2023-01-31T01:01:19;98308.50;;;3.66;100.00
27712;BME280;2377;51.734;8.950;2023-01-31T01:03:47;98315.47;;;3.72;100.00
27712;BME280;2377;51.734;8.950;2023-01-31T01:06:16;98305.50;;;3.70;100.00
27712;BME280;2377;51.734;8.950;2023-01-31T01:08:44;98311.66;;;3.76;100.00
27712;BME280;2377;51.734;8.950;2023-01-31T01:11:13;98302.50;;;3.75;100.00
27712;BME280;2377;51.734;8.950;2023-01-31T01:13:42;98317.38;;;3.78;100.00
27712;BME280;2377;51.734;8.950;2023-01-31T01:16:12;98297.59;;;3.73;100.00
27712;BME280;2377;51.734;8.950;2023-01-31T01:18:40;98307.06;;;3.71;100.00
27712;BME280;2377;51.734;8.950;2023-01-31T01:21:09;98313.91;;;3.79;100.00
27712;BME280;2377;51.734;8.950;2023-01-31T01:23:39;98315.47;;;3.80;100.00
27712;BME280;2377;51.734;8.950;2023-01-31T01:26:13;98314.06;;;3.77;100.00
27712;BME280;2377;51.734;8.950;2023-01-31T01:28:41;98328.25;;;3.78;100.00
27712;BME280;2377;51.734;8.950;2023-01-31T01:31:11;98307.56;;;3.75;100.00
27712;BME280;2377;51.734;8.950;2023-01-31T01:33:41;98312.78;;;3.73;100.00
27712;BME280;2377;51.734;8.950;2023-01-31T01:36:11;98312.31;;;3.70;100.00
27712;BME280;2377;51.734;8.950;2023-01-31T01:38:44;98312.91;;;3.64;100.00
27712;BME280;2377;51.734;8.950;2023-01-31T01:41:13;98310.53;;;3.62;100.00
27712;BME280;2377;51.734;8.950;2023-01-31T01:43:43;98316.22;;;3.64;100.00
27712;BME280;2377;51.734;8.950;2023-01-31T01:46:22;98324.44;;;3.58;100.00
27712;BME280;2377;51.734;8.950;2023-01-31T01:48:57;98325.22;;;3.67;100.00
27712;BME280;2377;51.734;8.950;2023-01-31T01:51:28;98322.72;;;3.67;100.00
27712;BME280;2377;51.734;8.950;2023-01-31T01:54:04;98329.03;;;3.63;100.00
27712;BME280;2377;51.734;8.950;2023-01-31T01:56:36;98329.50;;;3.66;100.00
27712;BME280;2377;51.734;8.950;2023-01-31T01:59:09;98336.31;;;3.66;100.00
27712;BME280;2377;51.734;8.950;2023-01-31T02:01:39;98330.78;;;3.70;100.00
27712;BME280;2377;51.734;8.950;2023-01-31T02:04:12;98326.84;;;3.68;100.00
27712;BME280;2377;51.734;8.950;2023-01-31T02:06:42;98337.25;;;3.65;100.00
27712;BME280;2377;51.734;8.950;2023-01-31T02:09:18;98335.34;;;3.67;100.00
27712;BME280;2377;51.734;8.950;2023-01-31T02:11:47;98344.84;;;3.65;100.00
27712;BME280;2377;51.734;8.950;2023-01-31T02:14:15;98339.63;;;3.66;100.00
27712;BME280;2377;51.734;8.950;2023-01-31T02:16:43;98338.22;;;3.72;100.00
27712;BME280;2377;51.734;8.950;2023-01-31T02:19:19;98344.84;;;3.65;100.00
27712;BME280;2377;51.734;8.950;2023-01-31T02:22:14;98350.03;;;3.63;100.00
27712;BME280;2377;51.734;8.950;2023-01-31T02:25:33;98343.69;;;3.51;100.00
27712;BME280;2377;51.734;8.950;2023-01-31T02:34:33;98339.75;;;3.56;100.00
27712;BME280;2377;51.734;8.950;2023-01-31T02:37:16;98346.09;;;3.60;100.00
27712;BME280;2377;51.734;8.950;2023-01-31T02:40:00;98352.72;;;3.62;100.00
27712;BME280;2377;51.734;8.950;2023-01-31T02:42:44;98354.00;;;3.66;100.00
27712;BME280;2377;51.734;8.950;2023-01-31T02:45:24;98364.91;;;3.66;100.00
27712;BME280;2377;51.734;8.950;2023-01-31T02:48:06;98357.00;;;3.61;100.00
27712;BME280;2377;51.734;8.950;2023-01-31T02:50:44;98355.25;;;3.62;100.00
27712;BME280;2377;51.734;8.950;2023-01-31T02:53:19;98346.09;;;3.60;100.00
27712;BME280;2377;51.734;8.950;2023-01-31T02:55:54;98356.84;;;3.63;100.00
27712;BME280;2377;51.734;8.950;2023-01-31T02:58:51;98355.88;;;3.55;100.00
27712;BME280;2377;51.734;8.950;2023-01-31T03:01:25;98351.94;;;3.61;100.00
27712;BME280;2377;51.734;8.950;2023-01-31T03:03:57;98351.16;;;3.60;100.00
27712;BME280;2377;51.734;8.950;2023-01-31T03:07:02;98349.22;;;3.54;100.00
27712;BME280;2377;51.734;8.950;2023-01-31T03:09:40;98350.47;;;3.50;100.00
27712;BME280;2377;51.734;8.950;2023-01-31T03:12:35;98337.84;;;3.50;100.00
27712;BME280;2377;51.734;8.950;2023-01-31T03:15:22;98341.00;;;3.52;100.00
27712;BME280;2377;51.734;8.950;2023-01-31T03:18:01;98338.59;;;3.43;100.00
27712;BME280;2377;51.734;8.950;2023-01-31T03:20:37;98339.69;;;3.40;100.00
27712;BME280;2377;51.734;8.950;2023-01-31T03:23:15;98332.13;;;3.40;100.00
27712;BME280;2377;51.734;8.950;2023-01-31T03:25:44;98342.88;;;3.50;100.00
27712;BME280;2377;51.734;8.950;2023-01-31T03:28:17;98334.34;;;3.43;100.00
27712;BME280;2377;51.734;8.950;2023-01-31T03:30:51;98326.47;;;3.46;100.00
27712;BME280;2377;51.734;8.950;2023-01-31T03:33:25;98332.94;;;3.49;100.00
27712;BME280;2377;51.734;8.950;2023-01-31T03:36:03;98322.97;;;3.39;100.00
27712;BME280;2377;51.734;8.950;2023-01-31T03:38:38;98322.66;;;3.42;100.00
27712;BME280;2377;51.734;8.950;2023-01-31T03:41:21;98317.94;;;3.39;100.00
27712;BME280;2377;51.734;8.950;2023-01-31T03:43:58;98326.94;;;3.42;100.00
27712;BME280;2377;51.734;8.950;2023-01-31T03:46:34;98326.94;;;3.42;100.00
27712;BME280;2377;51.734;8.950;2023-01-31T03:49:07;98324.69;;;3.38;100.00
27712;BME280;2377;51.734;8.950;2023-01-31T03:51:40;98322.16;;;3.38;100.00
27712;BME280;2377;51.734;8.950;2023-01-31T03:54:18;98323.56;;;3.33;100.00
27712;BME280;2377;51.734;8.950;2023-01-31T03:56:52;98325.66;;;3.37;100.00
27712;BME280;2377;51.734;8.950;2023-01-31T03:59:25;98308.41;;;3.33;100.00
27712;BME280;2377;51.734;8.950;2023-01-31T04:01:57;98316.59;;;3.27;100.00
27712;BME280;2377;51.734;8.950;2023-01-31T04:04:30;98317.25;;;3.29;100.00
27712;BME280;2377;51.734;8.950;2023-01-31T04:06:58;98309.03;;;3.27;100.00
27712;BME280;2377;51.734;8.950;2023-01-31T04:09:27;98308.88;;;3.28;100.00
27712;BME280;2377;51.734;8.950;2023-01-31T04:11:58;98314.25;;;3.25;100.00
27712;BME280;2377;51.734;8.950;2023-01-31T04:14:27;98316.47;;;3.28;100.00
27712;BME280;2377;51.734;8.950;2023-01-31T04:16:54;98310.47;;;3.29;100.00
27712;BME280;2377;51.734;8.950;2023-01-31T04:19:21;98314.06;;;3.27;100.00
27712;BME280;2377;51.734;8.950;2023-01-31T04:21:48;98313.09;;;3.20;100.00
27712;BME280;2377;51.734;8.950;2023-01-31T04:24:15;98317.88;;;3.23;100.00
27712;BME280;2377;51.734;8.950;2023-01-31T04:26:44;98314.44;;;3.32;100.00
27712;BME280;2377;51.734;8.950;2023-01-31T04:29:11;98316.13;;;3.31;100.00
27712;BME280;2377;51.734;8.950;2023-01-31T04:31:38;98310.81;;;3.34;100.00
27712;BME280;2377;51.734;8.950;2023-01-31T04:34:06;98305.44;;;3.37;100.00
27712;BME280;2377;51.734;8.950;2023-01-31T04:36:33;98299.09;;;3.33;100.00
27712;BME280;2377;51.734;8.950;2023-01-31T04:39:00;98306.69;;;3.33;100.00
27712;BME280;2377;51.734;8.950;2023-01-31T04:41:28;98300.19;;;3.31;100.00
27712;BME280;2377;51.734;8.950;2023-01-31T04:43:56;98297.03;;;3.29;100.00
27712;BME280;2377;51.734;8.950;2023-01-31T04:46:23;98299.09;;;3.33;100.00
27712;BME280;2377;51.734;8.950;2023-01-31T04:48:50;98291.34;;;3.27;100.00
27712;BME280;2377;51.734;8.950;2023-01-31T04:51:17;98299.88;;;3.34;100.00
27712;BME280;2377;51.734;8.950;2023-01-31T04:53:45;98290.75;;;3.33;100.00
27712;BME280;2377;51.734;8.950;2023-01-31T04:56:12;98285.50;;;3.26;100.00
27712;BME280;2377;51.734;8.950;2023-01-31T04:58:39;98289.63;;;3.27;100.00
27712;BME280;2377;51.734;8.950;2023-01-31T05:01:09;98286.94;;;3.29;100.00
27712;BME280;2377;51.734;8.950;2023-01-31T05:03:36;98284.44;;;3.37;100.00
27712;BME280;2377;51.734;8.950;2023-01-31T05:06:04;98291.06;;;3.38;100.00
27712;BME280;2377;51.734;8.950;2023-01-31T05:08:31;98287.59;;;3.39;100.00
27712;BME280;2377;51.734;8.950;2023-01-31T05:10:59;98283.34;;;3.39;100.00
27712;BME280;2377;51.734;8.950;2023-01-31T05:13:26;98281.00;;;3.46;100.00
27712;BME280;2377;51.734;8.950;2023-01-31T05:15:55;98281.59;;;3.40;100.00
27712;BME280;2377;51.734;8.950;2023-01-31T05:18:24;98277.97;;;3.43;100.00
27712;BME280;2377;51.734;8.950;2023-01-31T05:20:52;98273.41;;;3.46;100.00
27712;BME280;2377;51.734;8.950;2023-01-31T05:23:19;98273.41;;;3.46;100.00
27712;BME280;2377;51.734;8.950;2023-01-31T05:25:49;98261.72;;;3.45;100.00
27712;BME280;2377;51.734;8.950;2023-01-31T05:28:16;98277.50;;;3.47;100.00
27712;BME280;2377;51.734;8.950;2023-01-31T05:30:44;98273.88;;;3.50;100.00
27712;BME280;2377;51.734;8.950;2023-01-31T05:33:11;98276.09;;;3.45;100.00
27712;BME280;2377;51.734;8.950;2023-01-31T05:35:40;98270.25;;;3.44;100.00
27712;BME280;2377;51.734;8.950;2023-01-31T05:38:08;98267.72;;;3.52;100.00
27712;BME280;2377;51.734;8.950;2023-01-31T05:40:35;98257.13;;;3.57;99.25
27712;BME280;2377;51.734;8.950;2023-01-31T05:43:02;98257.28;;;3.47;99.43
27712;BME280;2377;51.734;8.950;2023-01-31T05:45:30;98255.25;;;3.51;99.98
27712;BME280;2377;51.734;8.950;2023-01-31T05:47:58;98251.91;;;3.50;99.10
27712;BME280;2377;51.734;8.950;2023-01-31T05:50:25;98238.22;;;3.53;98.95
27712;BME280;2377;51.734;8.950;2023-01-31T05:52:56;98237.06;;;3.47;98.88
27712;BME280;2377;51.734;8.950;2023-01-31T05:55:25;98237.88;;;3.56;98.82
27712;BME280;2377;51.734;8.950;2023-01-31T05:57:53;98243.56;;;3.58;98.35
27712;BME280;2377;51.734;8.950;2023-01-31T06:00:21;98237.75;;;3.57;99.21
27712;BME280;2377;51.734;8.950;2023-01-31T06:02:48;98240.59;;;3.63;98.82
27712;BME280;2377;51.734;8.950;2023-01-31T06:05:16;98232.19;;;3.54;99.05
27712;BME280;2377;51.734;8.950;2023-01-31T06:07:43;98236.94;;;3.57;98.81
27712;BME280;2377;51.734;8.950;2023-01-31T06:10:12;98247.53;;;3.60;98.34
27712;BME280;2377;51.734;8.950;2023-01-31T06:12:40;98244.38;;;3.58;98.56
27712;BME280;2377;51.734;8.950;2023-01-31T06:15:08;98239.63;;;3.55;98.19
27712;BME280;2377;51.734;8.950;2023-01-31T06:17:35;98247.19;;;3.64;98.83
27712;BME280;2377;51.734;8.950;2023-01-31T06:20:04;98243.09;;;3.63;98.26
27712;BME280;2377;51.734;8.950;2023-01-31T06:22:32;98240.88;;;3.59;98.00
27712;BME280;2377;51.734;8.950;2023-01-31T06:24:59;98241.53;;;3.70;98.10
27712;BME280;2377;51.734;8.950;2023-01-31T06:27:31;98247.22;;;3.72;97.54
27712;BME280;2377;51.734;8.950;2023-01-31T06:29:58;98247.69;;;3.75;97.44
27712;BME280;2377;51.734;8.950;2023-01-31T06:32:25;98246.59;;;3.70;97.68
27712;BME280;2377;51.734;8.950;2023-01-31T06:34:52;98236.31;;;3.71;98.01
27712;BME280;2377;51.734;8.950;2023-01-31T06:37:19;98233.31;;;3.76;97.82
27712;BME280;2377;51.734;8.950;2023-01-31T06:39:46;98236.78;;;3.75;97.44
27712;BME280;2377;51.734;8.950;2023-01-31T06:42:13;98226.69;;;3.75;97.40
27712;BME280;2377;51.734;8.950;2023-01-31T06:44:42;98234.44;;;3.81;97.80
27712;BME280;2377;51.734;8.950;2023-01-31T06:47:09;98227.94;;;3.79;97.58
27712;BME280;2377;51.734;8.950;2023-01-31T06:49:37;98221.00;;;3.73;97.43
27712;BME280;2377;51.734;8.950;2023-01-31T06:52:05;98225.72;;;3.76;97.44
27712;BME280;2377;51.734;8.950;2023-01-31T06:54:32;98222.25;;;3.85;97.94
27712;BME280;2377;51.734;8.950;2023-01-31T06:56:59;98224.13;;;3.83;97.39
27712;BME280;2377;51.734;8.950;2023-01-31T06:59:26;98233.94;;;3.86;97.04
27712;BME280;2377;51.734;8.950;2023-01-31T07:01:54;98229.53;;;3.88;97.55
27712;BME280;2377;51.734;8.950;2023-01-31T07:04:22;98225.72;;;3.84;98.22
27712;BME280;2377;51.734;8.950;2023-01-31T07:06:49;98223.69;;;3.79;98.74
27712;BME280;2377;51.734;8.950;2023-01-31T07:09:16;98234.25;;;3.83;98.52
27712;BME280;2377;51.734;8.950;2023-01-31T07:11:43;98237.56;;;3.92;98.44
27712;BME280;2377;51.734;8.950;2023-01-31T07:14:10;98228.09;;;3.86;98.44
27712;BME280;2377;51.734;8.950;2023-01-31T07:16:37;98223.03;;;3.94;98.72
27712;BME280;2377;51.734;8.950;2023-01-31T07:19:06;98217.19;;;3.93;98.77
27712;BME280;2377;51.734;8.950;2023-01-31T07:21:33;98213.72;;;3.94;98.77
27712;BME280;2377;51.734;8.950;2023-01-31T07:24:02;98220.66;;;3.92;98.58
27712;BME280;2377;51.734;8.950;2023-01-31T07:26:29;98225.06;;;3.90;98.83
27712;BME280;2377;51.734;8.950;2023-01-31T07:28:57;98227.31;;;3.93;99.08
27712;BME280;2377;51.734;8.950;2023-01-31T07:31:24;98223.50;;;3.89;99.22
27712;BME280;2377;51.734;8.950;2023-01-31T07:33:51;98218.75;;;3.94;99.34
27712;BME280;2377;51.734;8.950;2023-01-31T07:36:20;98222.88;;;3.95;98.90
27712;BME280;2377;51.734;8.950;2023-01-31T07:38:53;98212.78;;;3.95;99.09
27712;BME280;2377;51.734;8.950;2023-01-31T07:41:21;98205.50;;;3.92;99.41
27712;BME280;2377;51.734;8.950;2023-01-31T07:43:48;98193.50;;;3.86;99.66
27712;BME280;2377;51.734;8.950;2023-01-31T07:46:16;98191.28;;;3.91;98.54
27712;BME280;2377;51.734;8.950;2023-01-31T07:48:44;98205.31;;;3.86;98.80
27712;BME280;2377;51.734;8.950;2023-01-31T07:51:11;98191.44;;;3.98;98.47
27712;BME280;2377;51.734;8.950;2023-01-31T07:53:40;98190.50;;;3.91;98.69
27712;BME280;2377;51.734;8.950;2023-01-31T07:56:11;98184.31;;;3.93;97.84
27712;BME280;2377;51.734;8.950;2023-01-31T07:58:39;98184.78;;;3.97;98.60
27712;BME280;2377;51.734;8.950;2023-01-31T08:01:11;98187.16;;;3.98;97.87
27712;BME280;2377;51.734;8.950;2023-01-31T08:03:57;98182.56;;;3.94;98.32
27712;BME280;2377;51.734;8.950;2023-01-31T08:06:26;98166.59;;;4.01;98.34
27712;BME280;2377;51.734;8.950;2023-01-31T08:08:56;98180.19;;;4.00;98.37
27712;BME280;2377;51.734;8.950;2023-01-31T08:11:24;98171.50;;;4.03;97.85
27712;BME280;2377;51.734;8.950;2023-01-31T08:13:51;98170.38;;;3.97;97.74
27712;BME280;2377;51.734;8.950;2023-01-31T08:16:18;98158.22;;;4.01;97.85
27712;BME280;2377;51.734;8.950;2023-01-31T08:18:46;98162.31;;;4.02;98.00
27712;BME280;2377;51.734;8.950;2023-01-31T08:21:14;98157.25;;;4.02;97.41
27712;BME280;2377;51.734;8.950;2023-01-31T08:23:42;98171.97;;;4.07;97.51
27712;BME280;2377;51.734;8.950;2023-01-31T08:26:14;98163.44;;;4.08;97.93
27712;BME280;2377;51.734;8.950;2023-01-31T08:28:42;98149.84;;;4.00;97.32
27712;BME280;2377;51.734;8.950;2023-01-31T08:31:13;98149.06;;;4.00;97.65
27712;BME280;2377;51.734;8.950;2023-01-31T08:33:41;98147.97;;;4.02;97.75
27712;BME280;2377;51.734;8.950;2023-01-31T08:36:10;98152.06;;;4.12;97.61
27712;BME280;2377;51.734;8.950;2023-01-31T08:38:37;98140.34;;;4.11;98.49
27712;BME280;2377;51.734;8.950;2023-01-31T08:41:04;98141.56;;;4.23;97.84
27712;BME280;2377;51.734;8.950;2023-01-31T08:43:33;98138.16;;;4.08;98.10
27712;BME280;2377;51.734;8.950;2023-01-31T08:46:03;98138.09;;;4.16;98.05
27712;BME280;2377;51.734;8.950;2023-01-31T08:48:31;98124.47;;;4.25;98.09
27712;BME280;2377;51.734;8.950;2023-01-31T08:51:00;98128.91;;;4.23;97.51
27712;BME280;2377;51.734;8.950;2023-01-31T08:53:28;98122.38;;;4.37;98.05
27712;BME280;2377;51.734;8.950;2023-01-31T08:55:58;98136.78;;;4.36;97.68
27712;BME280;2377;51.734;8.950;2023-01-31T08:58:25;98116.59;;;4.28;97.70
27712;BME280;2377;51.734;8.950;2023-01-31T09:00:54;98101.22;;;4.30;98.21
27712;BME280;2377;51.734;8.950;2023-01-31T09:03:26;98091.88;;;4.38;97.73
27712;BME280;2377;51.734;8.950;2023-01-31T09:05:53;98109.41;;;4.40;98.19
27712;BME280;2377;51.734;8.950;2023-01-31T09:08:20;98105.88;;;4.49;98.37
27712;BME280;2377;51.734;8.950;2023-01-31T09:10:50;98103.94;;;4.59;97.38
27712;BME280;2377;51.734;8.950;2023-01-31T09:13:17;98094.47;;;4.53;97.14
27712;BME280;2377;51.734;8.950;2023-01-31T09:15:44;98109.34;;;4.56;97.24
27712;BME280;2377;51.734;8.950;2023-01-31T09:18:13;98104.94;;;4.50;96.90
27712;BME280;2377;51.734;8.950;2023-01-31T09:20:40;98107.75;;;4.55;97.30
27712;BME280;2377;51.734;8.950;2023-01-31T09:23:07;98118.78;;;4.62;97.43
27712;BME280;2377;51.734;8.950;2023-01-31T09:25:34;98105.06;;;4.57;97.45
27712;BME280;2377;51.734;8.950;2023-01-31T09:28:01;98105.50;;;4.60;98.22
27712;BME280;2377;51.734;8.950;2023-01-31T09:30:28;98098.09;;;4.59;97.91
27712;BME280;2377;51.734;8.950;2023-01-31T09:32:55;98104.28;;;4.56;98.02
27712;BME280;2377;51.734;8.950;2023-01-31T09:35:24;98100.00;;;4.57;98.74
27712;BME280;2377;51.734;8.950;2023-01-31T09:37:51;98102.25;;;4.52;99.01
27712;BME280;2377;51.734;8.950;2023-01-31T09:40:21;98103.25;;;4.42;99.30
27712;BME280;2377;51.734;8.950;2023-01-31T09:42:53;98102.44;;;4.42;100.00
27712;BME280;2377;51.734;8.950;2023-01-31T09:45:29;98099.41;;;4.47;100.00
27712;BME280;2377;51.734;8.950;2023-01-31T09:48:00;98103.88;;;4.44;100.00
27712;BME280;2377;51.734;8.950;2023-01-31T09:50:35;98107.66;;;4.40;100.00
27712;BME280;2377;51.734;8.950;2023-01-31T09:53:02;98107.75;;;4.24;100.00
27712;BME280;2377;51.734;8.950;2023-01-31T09:55:42;98087.44;;;4.32;100.00
27712;BME280;2377;51.734;8.950;2023-01-31T09:58:23;98092.56;;;4.24;100.00
27712;BME280;2377;51.734;8.950;2023-01-31T10:01:02;98081.03;;;4.21;100.00
27712;BME280;2377;51.734;8.950;2023-01-31T10:03:50;98068.75;;;4.10;100.00
27712;BME280;2377;51.734;8.950;2023-01-31T10:06:29;98078.38;;;4.15;100.00
27712;BME280;2377;51.734;8.950;2023-01-31T10:09:06;98076.91;;;4.20;100.00
27712;BME280;2377;51.734;8.950;2023-01-31T10:11:42;98081.81;;;4.22;100.00
27712;BME280;2377;51.734;8.950;2023-01-31T10:14:23;98085.63;;;4.18;100.00
27712;BME280;2377;51.734;8.950;2023-01-31T10:17:09;98065.88;;;4.13;100.00
27712;BME280;2377;51.734;8.950;2023-01-31T10:19:47;98071.72;;;4.14;100.00
27712;BME280;2377;51.734;8.950;2023-01-31T10:22:24;98071.41;;;4.09;100.00
27712;BME280;2377;51.734;8.950;2023-01-31T10:24:57;98074.72;;;4.17;100.00
27712;BME280;2377;51.734;8.950;2023-01-31T10:27:42;98074.56;;;4.11;100.00
27712;BME280;2377;51.734;8.950;2023-01-31T10:30:17;98074.88;;;4.16;100.00
27712;BME280;2377;51.734;8.950;2023-01-31T10:32:51;98059.53;;;4.17;100.00
27712;BME280;2377;51.734;8.950;2023-01-31T10:35:27;98070.00;;;4.14;100.00
27712;BME280;2377;51.734;8.950;2023-01-31T10:38:04;98075.22;;;4.13;100.00
27712;BME280;2377;51.734;8.950;2023-01-31T10:40:36;98053.41;;;4.12;100.00
27712;BME280;2377;51.734;8.950;2023-01-31T10:43:16;98054.94;;;4.21;100.00
27712;BME280;2377;51.734;8.950;2023-01-31T10:45:44;98049.56;;;4.24;100.00
27712;BME280;2377;51.734;8.950;2023-01-31T10:48:16;98050.69;;;4.13;100.00
27712;BME280;2377;51.734;8.950;2023-01-31T10:50:59;98027.16;;;4.13;100.00
27712;BME280;2377;51.734;8.950;2023-01-31T10:53:49;98023.66;;;4.14;100.00
27712;BME280;2377;51.734;8.950;2023-01-31T10:56:27;98025.53;;;4.20;100.00
27712;BME280;2377;51.734;8.950;2023-01-31T10:58:57;98007.53;;;4.15;100.00
27712;BME280;2377;51.734;8.950;2023-01-31T11:01:26;98010.63;;;4.25;100.00
27712;BME280;2377;51.734;8.950;2023-01-31T11:03:55;98001.22;;;4.19;100.00
27712;BME280;2377;51.734;8.950;2023-01-31T11:06:23;97996.59;;;4.22;100.00
27712;BME280;2377;51.734;8.950;2023-01-31T11:08:56;97987.25;;;4.23;100.00
27712;BME280;2377;51.734;8.950;2023-01-31T11:11:26;97984.56;;;4.24;100.00
27712;BME280;2377;51.734;8.950;2023-01-31T11:14:00;97982.03;;;4.24;100.00
27712;BME280;2377;51.734;8.950;2023-01-31T11:16:30;97975.84;;;4.27;100.00
27712;BME280;2377;51.734;8.950;2023-01-31T11:19:02;97975.28;;;4.17;100.00
27712;BME280;2377;51.734;8.950;2023-01-31T11:21:33;97965.78;;;4.19;100.00
27712;BME280;2377;51.734;8.950;2023-01-31T11:24:14;97964.97;;;4.18;100.00
27712;BME280;2377;51.734;8.950;2023-01-31T11:26:51;97957.59;;;4.17;100.00
27712;BME280;2377;51.734;8.950;2023-01-31T11:29:26;97964.19;;;4.18;100.00
27712;BME280;2377;51.734;8.950;2023-01-31T11:31:56;97948.72;;;4.21;100.00
27712;BME280;2377;51.734;8.950;2023-01-31T11:34:26;97952.84;;;4.14;100.00
27712;BME280;2377;51.734;8.950;2023-01-31T11:37:04;97936.22;;;4.19;100.00
27712;BME280;2377;51.734;8.950;2023-01-31T11:39:35;97926.22;;;4.26;100.00
27712;BME280;2377;51.734;8.950;2023-01-31T11:42:13;97932.69;;;4.29;100.00
27712;BME280;2377;51.734;8.950;2023-01-31T11:44:55;97933.75;;;4.34;100.00
27712;BME280;2377;51.734;8.950;2023-01-31T11:47:32;97937.41;;;4.32;100.00
27712;BME280;2377;51.734;8.950;2023-01-31T11:50:01;97925.22;;;4.35;100.00
27712;BME280;2377;51.734;8.950;2023-01-31T11:52:31;97908.53;;;4.41;100.00
27712;BME280;2377;51.734;8.950;2023-01-31T11:55:05;97915.16;;;4.42;100.00
27712;BME280;2377;51.734;8.950;2023-01-31T11:57:36;97896.16;;;4.46;100.00
27712;BME280;2377;51.734;8.950;2023-01-31T12:00:19;97910.50;;;4.54;100.00
27712;BME280;2377;51.734;8.950;2023-01-31T12:02:58;97900.44;;;4.45;100.00
27712;BME280;2377;51.734;8.950;2023-01-31T12:05:36;97903.75;;;4.46;100.00
27712;BME280;2377;51.734;8.950;2023-01-31T12:08:07;97907.06;;;4.47;100.00
27712;BME280;2377;51.734;8.950;2023-01-31T12:10:52;97896.28;;;4.53;100.00
27712;BME280;2377;51.734;8.950;2023-01-31T12:13:22;97897.28;;;4.43;100.00
27712;BME280;2377;51.734;8.950;2023-01-31T12:15:55;97901.56;;;4.43;100.00
27712;BME280;2377;51.734;8.950;2023-01-31T12:18:54;97896.25;;;4.38;100.00
27712;BME280;2377;51.734;8.950;2023-01-31T12:21:42;97895.13;;;4.40;100.00
27712;BME280;2377;51.734;8.950;2023-01-31T12:24:32;97887.25;;;4.35;100.00
27712;BME280;2377;51.734;8.950;2023-01-31T12:27:21;97893.53;;;4.39;100.00
27712;BME280;2377;51.734;8.950;2023-01-31T12:30:13;97870.75;;;4.39;100.00
27712;BME280;2377;51.734;8.950;2023-01-31T12:33:03;97869.69;;;4.34;100.00
27712;BME280;2377;51.734;8.950;2023-01-31T12:35:50;97878.84;;;4.35;100.00
27712;BME280;2377;51.734;8.950;2023-01-31T12:38:50;97863.34;;;4.38;100.00
27712;BME280;2377;51.734;8.950;2023-01-31T12:41:30;97855.56;;;4.39;100.00
27712;BME280;2377;51.734;8.950;2023-01-31T12:44:21;97849.38;;;4.42;100.00
27712;BME280;2377;51.734;8.950;2023-01-31T12:47:07;97840.06;;;4.42;100.00
27712;BME280;2377;51.734;8.950;2023-01-31T12:50:08;97847.31;;;4.45;100.00
27712;BME280;2377;51.734;8.950;2023-01-31T12:52:51;97845.13;;;4.42;100.00
27712;BME280;2377;51.734;8.950;2023-01-31T12:55:32;97858.06;;;4.48;100.00
27712;BME280;2377;51.734;8.950;2023-01-31T12:58:30;97846.00;;;4.50;100.00
27712;BME280;2377;51.734;8.950;2023-01-31T13:01:06;97842.50;;;4.51;100.00
27712;BME280;2377;51.734;8.950;2023-01-31T13:03:56;97846.78;;;4.50;100.00
27712;BME280;2377;51.734;8.950;2023-01-31T13:06:33;97839.91;;;4.59;100.00
27712;BME280;2377;51.734;8.950;2023-01-31T13:09:09;97848.09;;;4.61;100.00
27712;BME280;2377;51.734;8.950;2023-01-31T13:11:44;97856.31;;;4.63;100.00
27712;BME280;2377;51.734;8.950;2023-01-31T13:14:20;97843.94;;;4.68;100.00
27712;BME280;2377;51.734;8.950;2023-01-31T13:16:54;97849.94;;;4.67;100.00
27712;BME280;2377;51.734;8.950;2023-01-31T13:19:31;97846.28;;;4.70;100.00
27712;BME280;2377;51.734;8.950;2023-01-31T13:22:04;97855.63;;;4.69;100.00
27712;BME280;2377;51.734;8.950;2023-01-31T13:24:39;97858.06;;;4.77;100.00
27712;BME280;2377;51.734;8.950;2023-01-31T13:27:16;97864.38;;;4.81;100.00
27712;BME280;2377;51.734;8.950;2023-01-31T13:29:52;97868.66;;;4.81;100.00
27712;BME280;2377;51.734;8.950;2023-01-31T13:32:29;97869.31;;;4.75;100.00
27712;BME280;2377;51.734;8.950;2023-01-31T13:35:08;97856.59;;;4.83;100.00
27712;BME280;2377;51.734;8.950;2023-01-31T13:37:43;97868.50;;;4.82;100.00
27712;BME280;2377;51.734;8.950;2023-01-31T13:40:20;97879.56;;;4.81;100.00
27712;BME280;2377;51.734;8.950;2023-01-31T13:42:49;97884.28;;;4.84;100.00
27712;BME280;2377;51.734;8.950;2023-01-31T13:45:25;97895.63;;;4.88;100.00
27712;BME280;2377;51.734;8.950;2023-01-31T13:48:01;97885.06;;;4.85;100.00
27712;BME280;2377;51.734;8.950;2023-01-31T13:50:38;97881.22;;;4.74;100.00